sensor_id;sensor_type;location;lat;lon;timestamp;pressure;altitude;pressure_sealevel;temperature
74539;BMP180;66042;51.090;-115.340;2023-04-24T00:01:42;85758.80;;;18.76
74539;BMP180;66042;51.090;-115.340;2023-04-24T00:04:09;85756.80;;;18.30
74539;BMP180;66042;51.090;-115.340;2023-04-24T00:06:37;85756.80;;;18.10
74539;BMP180;66042;51.090;-115.340;2023-04-24T00:09:05;85756.80;;;17.70
74539;BMP180;66042;51.090;-115.340;2023-04-24T00:11:32;85757.60;;;17.58
74539;BMP180;66042;51.090;-115.340;2023-04-24T00:13:59;85763.80;;;17.30
74539;BMP180;66042;51.090;-115.340;2023-04-24T00:16:26;85764.40;;;17.00
74539;BMP180;66042;51.090;-115.340;2023-04-24T00:18:53;85761.60;;;16.80
74539;BMP180;66042;51.090;-115.340;2023-04-24T00:21:21;85763.00;;;16.60
74539;BMP180;66042;51.090;-115.340;2023-04-24T00:23:48;85762.60;;;16.42
74539;BMP180;66042;51.090;-115.340;2023-04-24T00:26:15;85759.60;;;16.26
74539;BMP180;66042;51.090;-115.340;2023-04-24T00:28:42;85757.00;;;16.10
74539;BMP180;66042;51.090;-115.340;2023-04-24T00:31:10;85756.40;;;15.90
74539;BMP180;66042;51.090;-115.340;2023-04-24T00:33:37;85760.20;;;15.80
74539;BMP180;66042;51.090;-115.340;2023-04-24T00:36:04;85755.40;;;15.60
74539;BMP180;66042;51.090;-115.340;2023-04-24T00:38:31;85756.60;;;15.50
74539;BMP180;66042;51.090;-115.340;2023-04-24T00:40:57;85760.00;;;15.40
74539;BMP180;66042;51.090;-115.340;2023-04-24T00:43:25;85759.20;;;15.20
74539;BMP180;66042;51.090;-115.340;2023-04-24T00:45:52;85763.40;;;14.90
74539;BMP180;66042;51.090;-115.340;2023-04-24T00:48:21;85765.20;;;14.80
74539;BMP180;66042;51.090;-115.340;2023-04-24T00:50:48;85765.60;;;14.70
74539;BMP180;66042;51.090;-115.340;2023-04-24T00:53:15;85765.20;;;14.58
74539;BMP180;66042;51.090;-115.340;2023-04-24T00:55:42;85768.40;;;14.38
74539;BMP180;66042;51.090;-115.340;2023-04-24T00:58:09;85771.00;;;14.20
74539;BMP180;66042;51.090;-115.340;2023-04-24T01:00:36;85771.40;;;14.08
74539;BMP180;66042;51.090;-115.340;2023-04-24T01:03:05;85773.20;;;13.94
74539;BMP180;66042;51.090;-115.340;2023-04-24T01:05:33;85772.40;;;13.90
74539;BMP180;66042;51.090;-115.340;2023-04-24T01:08:03;85769.00;;;13.80
74539;BMP180;66042;51.090;-115.340;2023-04-24T01:10:33;85766.20;;;13.70
74539;BMP180;66042;51.090;-115.340;2023-04-24T01:13:01;85765.80;;;13.60
74539;BMP180;66042;51.090;-115.340;2023-04-24T01:15:29;85766.80;;;13.46
74539;BMP180;66042;51.090;-115.340;2023-04-24T01:17:56;85768.60;;;13.32
74539;BMP180;66042;51.090;-115.340;2023-04-24T01:20:24;85770.00;;;13.26
74539;BMP180;66042;51.090;-115.340;2023-04-24T01:22:54;85767.40;;;13.18
74539;BMP180;66042;51.090;-115.340;2023-04-24T01:25:24;85767.80;;;13.10
74539;BMP180;66042;51.090;-115.340;2023-04-24T01:27:52;85768.60;;;13.10
74539;BMP180;66042;51.090;-115.340;2023-04-24T01:30:19;85768.40;;;13.08
74539;BMP180;66042;51.090;-115.340;2023-04-24T01:32:46;85767.60;;;13.00
74539;BMP180;66042;51.090;-115.340;2023-04-24T01:35:14;85771.40;;;12.90
74539;BMP180;66042;51.090;-115.340;2023-04-24T01:37:41;85771.00;;;12.80
74539;BMP180;66042;51.090;-115.340;2023-04-24T01:40:09;85771.40;;;12.70
74539;BMP180;66042;51.090;-115.340;2023-04-24T01:42:37;85778.00;;;12.60
74539;BMP180;66042;51.090;-115.340;2023-04-24T01:45:05;85775.00;;;12.60
74539;BMP180;66042;51.090;-115.340;2023-04-24T01:47:32;85774.80;;;12.50
74539;BMP180;66042;51.090;-115.340;2023-04-24T01:49:59;85776.20;;;12.40
74539;BMP180;66042;51.090;-115.340;2023-04-24T01:52:26;85778.40;;;12.20
74539;BMP180;66042;51.090;-115.340;2023-04-24T01:54:55;85780.40;;;12.10
74539;BMP180;66042;51.090;-115.340;2023-04-24T01:57:22;85774.60;;;12.00
74539;BMP180;66042;51.090;-115.340;2023-04-24T01:59:51;85775.80;;;11.90
74539;BMP180;66042;51.090;-115.340;2023-04-24T02:02:18;85777.20;;;11.80
74539;BMP180;66042;51.090;-115.340;2023-04-24T02:04:45;85772.80;;;11.70
74539;BMP180;66042;51.090;-115.340;2023-04-24T02:07:12;85772.40;;;11.60
74539;BMP180;66042;51.090;-115.340;2023-04-24T02:09:39;85774.00;;;11.48
74539;BMP180;66042;51.090;-115.340;2023-04-24T02:12:07;85778.00;;;11.34
74539;BMP180;66042;51.090;-115.340;2023-04-24T02:14:34;85779.40;;;11.22
74539;BMP180;66042;51.090;-115.340;2023-04-24T02:17:01;85780.60;;;11.10
74539;BMP180;66042;51.090;-115.340;2023-04-24T02:19:28;85779.60;;;11.00
74539;BMP180;66042;51.090;-115.340;2023-04-24T02:21:56;85775.40;;;10.92
74539;BMP180;66042;51.090;-115.340;2023-04-24T02:24:23;85771.80;;;10.90
74539;BMP180;66042;51.090;-115.340;2023-04-24T02:26:50;85774.20;;;10.80
74539;BMP180;66042;51.090;-115.340;2023-04-24T02:29:17;85773.00;;;10.70
74539;BMP180;66042;51.090;-115.340;2023-04-24T02:31:44;85773.40;;;10.68
74539;BMP180;66042;51.090;-115.340;2023-04-24T02:34:11;85770.00;;;10.52
74539;BMP180;66042;51.090;-115.340;2023-04-24T02:36:38;85765.60;;;10.40
74539;BMP180;66042;51.090;-115.340;2023-04-24T02:39:05;85762.40;;;10.30
74539;BMP180;66042;51.090;-115.340;2023-04-24T02:41:32;85764.40;;;10.30
74539;BMP180;66042;51.090;-115.340;2023-04-24T02:43:59;85764.20;;;10.20
74539;BMP180;66042;51.090;-115.340;2023-04-24T02:46:26;85760.80;;;10.20
74539;BMP180;66042;51.090;-115.340;2023-04-24T02:48:53;85759.80;;;10.10
74539;BMP180;66042;51.090;-115.340;2023-04-24T02:51:20;85761.60;;;10.00
74539;BMP180;66042;51.090;-115.340;2023-04-24T02:53:47;85760.80;;;10.00
74539;BMP180;66042;51.090;-115.340;2023-04-24T02:56:14;85761.00;;;9.90
74539;BMP180;66042;51.090;-115.340;2023-04-24T02:58:44;85757.80;;;9.80
74539;BMP180;66042;51.090;-115.340;2023-04-24T03:01:11;85759.40;;;9.80
74539;BMP180;66042;51.090;-115.340;2023-04-24T03:03:39;85751.60;;;9.70
74539;BMP180;66042;51.090;-115.340;2023-04-24T03:06:06;85754.00;;;9.60
74539;BMP180;66042;51.090;-115.340;2023-04-24T03:08:34;85751.00;;;9.50
74539;BMP180;66042;51.090;-115.340;2023-04-24T03:11:01;85749.00;;;9.40
74539;BMP180;66042;51.090;-115.340;2023-04-24T03:13:30;85745.60;;;9.40
74539;BMP180;66042;51.090;-115.340;2023-04-24T03:15:57;85757.40;;;9.30
74539;BMP180;66042;51.090;-115.340;2023-04-24T03:18:24;85761.40;;;9.20
74539;BMP180;66042;51.090;-115.340;2023-04-24T03:20:52;85765.20;;;9.10
74539;BMP180;66042;51.090;-115.340;2023-04-24T03:23:19;85763.00;;;9.00
74539;BMP180;66042;51.090;-115.340;2023-04-24T03:25:46;85766.40;;;8.90
74539;BMP180;66042;51.090;-115.340;2023-04-24T03:28:16;85769.00;;;8.90
74539;BMP180;66042;51.090;-115.340;2023-04-24T03:30:43;85767.00;;;8.80
74539;BMP180;66042;51.090;-115.340;2023-04-24T03:33:10;85770.40;;;8.70
74539;BMP180;66042;51.090;-115.340;2023-04-24T03:35:37;85772.60;;;8.60
74539;BMP180;66042;51.090;-115.340;2023-04-24T03:38:04;85770.60;;;8.50
74539;BMP180;66042;51.090;-115.340;2023-04-24T03:40:31;85770.40;;;8.40
74539;BMP180;66042;51.090;-115.340;2023-04-24T03:42:59;85766.20;;;8.36
74539;BMP180;66042;51.090;-115.340;2023-04-24T03:45:26;85770.20;;;8.30
74539;BMP180;66042;51.090;-115.340;2023-04-24T03:47:54;85768.40;;;8.30
74539;BMP180;66042;51.090;-115.340;2023-04-24T03:50:20;85771.40;;;8.30
74539;BMP180;66042;51.090;-115.340;2023-04-24T03:52:47;85772.80;;;8.28
74539;BMP180;66042;51.090;-115.340;2023-04-24T03:55:14;85769.20;;;8.22
74539;BMP180;66042;51.090;-115.340;2023-04-24T03:57:41;85768.40;;;8.20
74539;BMP180;66042;51.090;-115.340;2023-04-24T04:00:09;85762.40;;;8.20
74539;BMP180;66042;51.090;-115.340;2023-04-24T04:02:36;85765.80;;;8.18
74539;BMP180;66042;51.090;-115.340;2023-04-24T04:05:03;85762.20;;;8.10
74539;BMP180;66042;51.090;-115.340;2023-04-24T04:07:30;85764.20;;;8.00
74539;BMP180;66042;51.090;-115.340;2023-04-24T04:09:57;85763.20;;;7.90
74539;BMP180;66042;51.090;-115.340;2023-04-24T04:12:24;85768.20;;;7.90
74539;BMP180;66042;51.090;-115.340;2023-04-24T04:14:51;85763.80;;;7.80
74539;BMP180;66042;51.090;-115.340;2023-04-24T04:17:19;85761.60;;;7.70
74539;BMP180;66042;51.090;-115.340;2023-04-24T04:19:46;85763.80;;;7.62
74539;BMP180;66042;51.090;-115.340;2023-04-24T04:22:13;85762.80;;;7.60
74539;BMP180;66042;51.090;-115.340;2023-04-24T04:24:41;85762.00;;;7.50
74539;BMP180;66042;51.090;-115.340;2023-04-24T04:27:09;85763.60;;;7.50
74539;BMP180;66042;51.090;-115.340;2023-04-24T04:29:37;85764.00;;;7.50
74539;BMP180;66042;51.090;-115.340;2023-04-24T04:32:04;85760.40;;;7.50
74539;BMP180;66042;51.090;-115.340;2023-04-24T04:34:32;85758.80;;;7.40
74539;BMP180;66042;51.090;-115.340;2023-04-24T04:36:59;85763.80;;;7.30
74539;BMP180;66042;51.090;-115.340;2023-04-24T04:39:27;85762.20;;;7.30
74539;BMP180;66042;51.090;-115.340;2023-04-24T04:41:57;85762.00;;;7.20
74539;BMP180;66042;51.090;-115.340;2023-04-24T04:44:24;85759.00;;;7.20
74539;BMP180;66042;51.090;-115.340;2023-04-24T04:46:51;85763.80;;;7.10
74539;BMP180;66042;51.090;-115.340;2023-04-24T04:49:19;85762.80;;;7.00
74539;BMP180;66042;51.090;-115.340;2023-04-24T04:51:48;85770.40;;;7.00
74539;BMP180;66042;51.090;-115.340;2023-04-24T04:54:15;85767.00;;;6.92
74539;BMP180;66042;51.090;-115.340;2023-04-24T04:56:42;85759.00;;;6.90
74539;BMP180;66042;51.090;-115.340;2023-04-24T04:59:09;85758.20;;;6.90
74539;BMP180;66042;51.090;-115.340;2023-04-24T05:01:37;85757.40;;;6.80
74539;BMP180;66042;51.090;-115.340;2023-04-24T05:04:04;85761.20;;;6.70
74539;BMP180;66042;51.090;-115.340;2023-04-24T05:06:31;85754.40;;;6.70
74539;BMP180;66042;51.090;-115.340;2023-04-24T05:08:58;85751.80;;;6.70
74539;BMP180;66042;51.090;-115.340;2023-04-24T05:11:26;85748.00;;;6.60
74539;BMP180;66042;51.090;-115.340;2023-04-24T05:13:53;85747.80;;;6.60
74539;BMP180;66042;51.090;-115.340;2023-04-24T05:16:20;85746.00;;;6.54
74539;BMP180;66042;51.090;-115.340;2023-04-24T05:18:47;85738.80;;;6.50
74539;BMP180;66042;51.090;-115.340;2023-04-24T05:21:14;85743.00;;;6.50
74539;BMP180;66042;51.090;-115.340;2023-04-24T05:23:41;85737.00;;;6.40
74539;BMP180;66042;51.090;-115.340;2023-04-24T05:26:10;85735.20;;;6.40
74539;BMP180;66042;51.090;-115.340;2023-04-24T05:28:38;85729.00;;;6.40
74539;BMP180;66042;51.090;-115.340;2023-04-24T05:31:05;85733.60;;;6.38
74539;BMP180;66042;51.090;-115.340;2023-04-24T05:33:32;85730.80;;;6.30
74539;BMP180;66042;51.090;-115.340;2023-04-24T05:35:59;85722.40;;;6.30
74539;BMP180;66042;51.090;-115.340;2023-04-24T05:38:26;85713.00;;;6.22
74539;BMP180;66042;51.090;-115.340;2023-04-24T05:40:53;85715.00;;;6.20
74539;BMP180;66042;51.090;-115.340;2023-04-24T05:43:20;85719.40;;;6.10
74539;BMP180;66042;51.090;-115.340;2023-04-24T05:45:47;85728.40;;;6.10
74539;BMP180;66042;51.090;-115.340;2023-04-24T05:48:14;85729.20;;;6.06
74539;BMP180;66042;51.090;-115.340;2023-04-24T05:50:42;85730.00;;;6.00
74539;BMP180;66042;51.090;-115.340;2023-04-24T05:53:09;85722.20;;;5.98
74539;BMP180;66042;51.090;-115.340;2023-04-24T05:55:36;85722.00;;;5.90
74539;BMP180;66042;51.090;-115.340;2023-04-24T05:58:04;85720.60;;;5.70
74539;BMP180;66042;51.090;-115.340;2023-04-24T06:00:31;85715.80;;;5.60
74539;BMP180;66042;51.090;-115.340;2023-04-24T06:03:00;85714.40;;;5.58
74539;BMP180;66042;51.090;-115.340;2023-04-24T06:05:27;85714.00;;;5.50
74539;BMP180;66042;51.090;-115.340;2023-04-24T06:07:54;85706.00;;;5.50
74539;BMP180;66042;51.090;-115.340;2023-04-24T06:10:21;85702.60;;;5.50
74539;BMP180;66042;51.090;-115.340;2023-04-24T06:12:48;85700.00;;;5.50
74539;BMP180;66042;51.090;-115.340;2023-04-24T06:15:15;85701.20;;;5.50
74539;BMP180;66042;51.090;-115.340;2023-04-24T06:17:42;85707.20;;;5.40
74539;BMP180;66042;51.090;-115.340;2023-04-24T06:20:09;85714.00;;;5.40
74539;BMP180;66042;51.090;-115.340;2023-04-24T06:22:37;85712.80;;;5.30
74539;BMP180;66042;51.090;-115.340;2023-04-24T06:25:07;85711.80;;;5.20
74539;BMP180;66042;51.090;-115.340;2023-04-24T06:27:34;85700.00;;;5.20
74539;BMP180;66042;51.090;-115.340;2023-04-24T06:30:02;85700.00;;;5.20
74539;BMP180;66042;51.090;-115.340;2023-04-24T06:32:29;85700.60;;;5.16
74539;BMP180;66042;51.090;-115.340;2023-04-24T06:34:57;85697.20;;;5.10
74539;BMP180;66042;51.090;-115.340;2023-04-24T06:37:24;85695.40;;;5.12
74539;BMP180;66042;51.090;-115.340;2023-04-24T06:39:51;85708.00;;;5.10
74539;BMP180;66042;51.090;-115.340;2023-04-24T06:42:18;85703.40;;;5.10
74539;BMP180;66042;51.090;-115.340;2023-04-24T06:44:47;85705.20;;;5.10
74539;BMP180;66042;51.090;-115.340;2023-04-24T06:47:14;85705.40;;;5.10
74539;BMP180;66042;51.090;-115.340;2023-04-24T06:49:43;85708.40;;;5.10
74539;BMP180;66042;51.090;-115.340;2023-04-24T06:52:09;85716.00;;;5.10
74539;BMP180;66042;51.090;-115.340;2023-04-24T06:54:37;85708.20;;;5.00
74539;BMP180;66042;51.090;-115.340;2023-04-24T06:57:04;85708.80;;;5.00
74539;BMP180;66042;51.090;-115.340;2023-04-24T06:59:31;85711.40;;;5.00
74539;BMP180;66042;51.090;-115.340;2023-04-24T07:01:58;85707.40;;;5.00
74539;BMP180;66042;51.090;-115.340;2023-04-24T07:04:25;85708.40;;;5.00
74539;BMP180;66042;51.090;-115.340;2023-04-24T07:06:53;85706.00;;;5.00
74539;BMP180;66042;51.090;-115.340;2023-04-24T07:09:25;85705.80;;;5.06
74539;BMP180;66042;51.090;-115.340;2023-04-24T07:11:52;85707.20;;;5.10
74539;BMP180;66042;51.090;-115.340;2023-04-24T07:14:20;85700.20;;;5.10
74539;BMP180;66042;51.090;-115.340;2023-04-24T07:16:48;85702.40;;;5.10
74539;BMP180;66042;51.090;-115.340;2023-04-24T07:19:15;85702.00;;;5.10
74539;BMP180;66042;51.090;-115.340;2023-04-24T07:21:42;85703.80;;;5.10
74539;BMP180;66042;51.090;-115.340;2023-04-24T07:24:09;85712.20;;;5.00
74539;BMP180;66042;51.090;-115.340;2023-04-24T07:26:37;85711.60;;;5.00
74539;BMP180;66042;51.090;-115.340;2023-04-24T07:29:06;85718.20;;;5.00
74539;BMP180;66042;51.090;-115.340;2023-04-24T07:31:33;85717.40;;;4.90
74539;BMP180;66042;51.090;-115.340;2023-04-24T07:34:00;85712.60;;;4.90
74539;BMP180;66042;51.090;-115.340;2023-04-24T07:36:28;85711.40;;;4.90
74539;BMP180;66042;51.090;-115.340;2023-04-24T07:38:55;85708.20;;;4.88
74539;BMP180;66042;51.090;-115.340;2023-04-24T07:41:25;85706.80;;;4.90
74539;BMP180;66042;51.090;-115.340;2023-04-24T07:43:53;85710.00;;;4.90
74539;BMP180;66042;51.090;-115.340;2023-04-24T07:46:21;85703.80;;;4.90
74539;BMP180;66042;51.090;-115.340;2023-04-24T07:48:48;85708.20;;;4.90
74539;BMP180;66042;51.090;-115.340;2023-04-24T07:51:15;85705.80;;;4.90
74539;BMP180;66042;51.090;-115.340;2023-04-24T07:53:44;85707.60;;;5.00
74539;BMP180;66042;51.090;-115.340;2023-04-24T07:56:11;85704.80;;;5.00
74539;BMP180;66042;51.090;-115.340;2023-04-24T07:58:38;85706.40;;;5.00
74539;BMP180;66042;51.090;-115.340;2023-04-24T08:01:06;85704.80;;;5.00
74539;BMP180;66042;51.090;-115.340;2023-04-24T08:03:33;85707.20;;;5.00
74539;BMP180;66042;51.090;-115.340;2023-04-24T08:06:00;85706.80;;;5.00
74539;BMP180;66042;51.090;-115.340;2023-04-24T08:08:26;85706.20;;;4.90
74539;BMP180;66042;51.090;-115.340;2023-04-24T08:10:53;85705.80;;;4.80
74539;BMP180;66042;51.090;-115.340;2023-04-24T08:13:21;85704.60;;;4.80
74539;BMP180;66042;51.090;-115.340;2023-04-24T08:15:48;85711.20;;;4.82
74539;BMP180;66042;51.090;-115.340;2023-04-24T08:18:15;85707.40;;;4.80
74539;BMP180;66042;51.090;-115.340;2023-04-24T08:20:43;85704.40;;;4.80
74539;BMP180;66042;51.090;-115.340;2023-04-24T08:23:11;85704.20;;;4.80
74539;BMP180;66042;51.090;-115.340;2023-04-24T08:25:38;85703.60;;;4.80
74539;BMP180;66042;51.090;-115.340;2023-04-24T08:28:07;85711.60;;;4.80
74539;BMP180;66042;51.090;-115.340;2023-04-24T08:30:35;85714.40;;;4.80
74539;BMP180;66042;51.090;-115.340;2023-04-24T08:33:02;85717.20;;;4.80
74539;BMP180;66042;51.090;-115.340;2023-04-24T08:35:29;85713.60;;;4.74
74539;BMP180;66042;51.090;-115.340;2023-04-24T08:37:56;85710.40;;;4.74
74539;BMP180;66042;51.090;-115.340;2023-04-24T08:40:28;85718.40;;;4.76
74539;BMP180;66042;51.090;-115.340;2023-04-24T08:42:56;85717.00;;;4.70
74539;BMP180;66042;51.090;-115.340;2023-04-24T08:45:24;85721.00;;;4.70
74539;BMP180;66042;51.090;-115.340;2023-04-24T08:47:55;85723.00;;;4.70
74539;BMP180;66042;51.090;-115.340;2023-04-24T08:50:24;85725.60;;;4.70
74539;BMP180;66042;51.090;-115.340;2023-04-24T08:52:52;85729.00;;;4.64
74539;BMP180;66042;51.090;-115.340;2023-04-24T08:55:20;85731.40;;;4.60
74539;BMP180;66042;51.090;-115.340;2023-04-24T08:57:54;85729.80;;;4.60
74539;BMP180;66042;51.090;-115.340;2023-04-24T09:00:22;85726.20;;;4.60
74539;BMP180;66042;51.090;-115.340;2023-04-24T09:02:53;85731.00;;;4.60
74539;BMP180;66042;51.090;-115.340;2023-04-24T09:05:22;85728.60;;;4.60
74539;BMP180;66042;51.090;-115.340;2023-04-24T09:07:56;85724.00;;;4.70
74539;BMP180;66042;51.090;-115.340;2023-04-24T09:10:25;85720.00;;;4.70
74539;BMP180;66042;51.090;-115.340;2023-04-24T09:12:54;85715.20;;;4.80
74539;BMP180;66042;51.090;-115.340;2023-04-24T09:15:21;85714.40;;;4.80
74539;BMP180;66042;51.090;-115.340;2023-04-24T09:17:48;85718.40;;;4.80
74539;BMP180;66042;51.090;-115.340;2023-04-24T09:20:16;85723.40;;;4.70
74539;BMP180;66042;51.090;-115.340;2023-04-24T09:22:45;85729.20;;;4.70
74539;BMP180;66042;51.090;-115.340;2023-04-24T09:25:12;85726.60;;;4.70
74539;BMP180;66042;51.090;-115.340;2023-04-24T09:27:44;85726.40;;;4.70
74539;BMP180;66042;51.090;-115.340;2023-04-24T09:30:12;85720.00;;;4.70
74539;BMP180;66042;51.090;-115.340;2023-04-24T09:32:39;85721.80;;;4.70
74539;BMP180;66042;51.090;-115.340;2023-04-24T09:35:15;85718.80;;;4.70
74539;BMP180;66042;51.090;-115.340;2023-04-24T09:37:45;85725.00;;;4.70
74539;BMP180;66042;51.090;-115.340;2023-04-24T09:40:19;85725.80;;;4.64
74539;BMP180;66042;51.090;-115.340;2023-04-24T09:42:53;85723.40;;;4.60
74539;BMP180;66042;51.090;-115.340;2023-04-24T09:45:22;85723.60;;;4.60
74539;BMP180;66042;51.090;-115.340;2023-04-24T09:47:55;85720.00;;;4.50
74539;BMP180;66042;51.090;-115.340;2023-04-24T09:50:23;85716.60;;;4.40
74539;BMP180;66042;51.090;-115.340;2023-04-24T09:53:05;85715.00;;;4.30
74539;BMP180;66042;51.090;-115.340;2023-04-24T09:55:42;85714.60;;;4.30
74539;BMP180;66042;51.090;-115.340;2023-04-24T09:58:11;85711.60;;;4.20
74539;BMP180;66042;51.090;-115.340;2023-04-24T10:00:38;85720.20;;;4.20
74539;BMP180;66042;51.090;-115.340;2023-04-24T10:03:06;85721.80;;;4.20
74539;BMP180;66042;51.090;-115.340;2023-04-24T10:05:36;85720.00;;;4.20
74539;BMP180;66042;51.090;-115.340;2023-04-24T10:08:12;85719.80;;;4.20
74539;BMP180;66042;51.090;-115.340;2023-04-24T10:10:45;85721.40;;;4.20
74539;BMP180;66042;51.090;-115.340;2023-04-24T10:13:14;85720.40;;;4.22
74539;BMP180;66042;51.090;-115.340;2023-04-24T10:15:42;85720.60;;;4.30
74539;BMP180;66042;51.090;-115.340;2023-04-24T10:18:11;85721.20;;;4.30
74539;BMP180;66042;51.090;-115.340;2023-04-24T10:20:40;85725.40;;;4.30
74539;BMP180;66042;51.090;-115.340;2023-04-24T10:23:07;85729.60;;;4.30
74539;BMP180;66042;51.090;-115.340;2023-04-24T10:25:36;85731.80;;;4.30
74539;BMP180;66042;51.090;-115.340;2023-04-24T10:28:04;85733.80;;;4.38
74539;BMP180;66042;51.090;-115.340;2023-04-24T10:30:33;85734.80;;;4.30
74539;BMP180;66042;51.090;-115.340;2023-04-24T10:33:06;85732.40;;;4.30
74539;BMP180;66042;51.090;-115.340;2023-04-24T10:35:45;85733.80;;;4.30
74539;BMP180;66042;51.090;-115.340;2023-04-24T10:38:22;85737.60;;;4.30
74539;BMP180;66042;51.090;-115.340;2023-04-24T10:40:51;85739.20;;;4.30
74539;BMP180;66042;51.090;-115.340;2023-04-24T10:43:18;85740.20;;;4.28
74539;BMP180;66042;51.090;-115.340;2023-04-24T10:46:04;85738.00;;;4.20
74539;BMP180;66042;51.090;-115.340;2023-04-24T10:48:34;85741.80;;;4.20
74539;BMP180;66042;51.090;-115.340;2023-04-24T10:51:01;85738.00;;;4.10
74539;BMP180;66042;51.090;-115.340;2023-04-24T10:53:30;85739.60;;;4.10
74539;BMP180;66042;51.090;-115.340;2023-04-24T10:56:03;85740.80;;;4.02
74539;BMP180;66042;51.090;-115.340;2023-04-24T10:58:49;85741.40;;;4.00
74539;BMP180;66042;51.090;-115.340;2023-04-24T11:01:30;85739.80;;;4.00
74539;BMP180;66042;51.090;-115.340;2023-04-24T11:04:00;85738.60;;;4.00
74539;BMP180;66042;51.090;-115.340;2023-04-24T11:06:36;85743.60;;;3.90
74539;BMP180;66042;51.090;-115.340;2023-04-24T11:09:09;85744.00;;;3.90
74539;BMP180;66042;51.090;-115.340;2023-04-24T11:11:46;85745.80;;;3.90
74539;BMP180;66042;51.090;-115.340;2023-04-24T11:14:16;85746.80;;;3.92
74539;BMP180;66042;51.090;-115.340;2023-04-24T11:16:51;85752.20;;;3.94
74539;BMP180;66042;51.090;-115.340;2023-04-24T11:19:23;85751.80;;;4.00
74539;BMP180;66042;51.090;-115.340;2023-04-24T11:22:14;85749.40;;;4.00
74539;BMP180;66042;51.090;-115.340;2023-04-24T11:24:50;85749.60;;;4.00
74539;BMP180;66042;51.090;-115.340;2023-04-24T11:27:22;85756.20;;;4.00
74539;BMP180;66042;51.090;-115.340;2023-04-24T11:32:30;85752.00;;;4.10
74539;BMP180;66042;51.090;-115.340;2023-04-24T11:37:42;85744.00;;;4.10
74539;BMP180;66042;51.090;-115.340;2023-04-24T11:40:13;85745.00;;;4.00
74539;BMP180;66042;51.090;-115.340;2023-04-24T11:42:48;85744.80;;;4.00
74539;BMP180;66042;51.090;-115.340;2023-04-24T11:45:23;85742.80;;;4.00
74539;BMP180;66042;51.090;-115.340;2023-04-24T11:47:51;85744.60;;;4.00
74539;BMP180;66042;51.090;-115.340;2023-04-24T11:50:23;85747.60;;;3.90
74539;BMP180;66042;51.090;-115.340;2023-04-24T11:52:51;85749.80;;;3.92
74539;BMP180;66042;51.090;-115.340;2023-04-24T11:57:49;85755.00;;;3.90
74539;BMP180;66042;51.090;-115.340;2023-04-24T12:00:23;85759.00;;;3.90
74539;BMP180;66042;51.090;-115.340;2023-04-24T12:02:51;85762.20;;;3.90
74539;BMP180;66042;51.090;-115.340;2023-04-24T12:05:26;85760.60;;;3.86
74539;BMP180;66042;51.090;-115.340;2023-04-24T12:07:54;85762.40;;;3.80
74539;BMP180;66042;51.090;-115.340;2023-04-24T12:10:24;85761.60;;;3.80
74539;BMP180;66042;51.090;-115.340;2023-04-24T12:12:53;85760.80;;;3.78
74539;BMP180;66042;51.090;-115.340;2023-04-24T12:15:21;85757.60;;;3.70
74539;BMP180;66042;51.090;-115.340;2023-04-24T12:17:51;85758.40;;;3.70
74539;BMP180;66042;51.090;-115.340;2023-04-24T12:20:26;85759.40;;;3.70
74539;BMP180;66042;51.090;-115.340;2023-04-24T12:22:56;85757.40;;;3.70
74539;BMP180;66042;51.090;-115.340;2023-04-24T12:25:26;85765.40;;;3.70
74539;BMP180;66042;51.090;-115.340;2023-04-24T12:28:16;85768.80;;;3.70
74539;BMP180;66042;51.090;-115.340;2023-04-24T12:30:47;85771.20;;;3.70
74539;BMP180;66042;51.090;-115.340;2023-04-24T12:33:21;85771.40;;;3.70
74539;BMP180;66042;51.090;-115.340;2023-04-24T12:35:55;85773.80;;;3.74
74539;BMP180;66042;51.090;-115.340;2023-04-24T12:38:28;85781.60;;;3.70
74539;BMP180;66042;51.090;-115.340;2023-04-24T12:41:11;85781.80;;;3.80
74539;BMP180;66042;51.090;-115.340;2023-04-24T12:43:51;85783.00;;;3.80
74539;BMP180;66042;51.090;-115.340;2023-04-24T12:46:19;85783.00;;;3.80
74539;BMP180;66042;51.090;-115.340;2023-04-24T12:48:46;85784.40;;;3.80
74539;BMP180;66042;51.090;-115.340;2023-04-24T12:51:13;85785.40;;;3.80
74539;BMP180;66042;51.090;-115.340;2023-04-24T12:53:41;85787.40;;;3.78
74539;BMP180;66042;51.090;-115.340;2023-04-24T12:56:08;85791.80;;;3.70
74539;BMP180;66042;51.090;-115.340;2023-04-24T12:58:36;85796.20;;;3.70
74539;BMP180;66042;51.090;-115.340;2023-04-24T13:01:03;85795.60;;;3.70
74539;BMP180;66042;51.090;-115.340;2023-04-24T13:03:30;85797.80;;;3.60
74539;BMP180;66042;51.090;-115.340;2023-04-24T13:05:57;85801.40;;;3.60
74539;BMP180;66042;51.090;-115.340;2023-04-24T13:08:24;85806.80;;;3.60
74539;BMP180;66042;51.090;-115.340;2023-04-24T13:10:51;85810.80;;;3.60
74539;BMP180;66042;51.090;-115.340;2023-04-24T13:13:19;85812.60;;;3.62
74539;BMP180;66042;51.090;-115.340;2023-04-24T13:15:46;85821.20;;;3.70
74539;BMP180;66042;51.090;-115.340;2023-04-24T13:18:13;85823.40;;;3.70
74539;BMP180;66042;51.090;-115.340;2023-04-24T13:20:40;85825.80;;;3.80
74539;BMP180;66042;51.090;-115.340;2023-04-24T13:23:08;85823.60;;;3.88
74539;BMP180;66042;51.090;-115.340;2023-04-24T13:25:36;85825.40;;;3.90
74539;BMP180;66042;51.090;-115.340;2023-04-24T13:28:05;85826.80;;;4.00
74539;BMP180;66042;51.090;-115.340;2023-04-24T13:30:32;85829.20;;;4.00
74539;BMP180;66042;51.090;-115.340;2023-04-24T13:32:59;85831.80;;;4.02
74539;BMP180;66042;51.090;-115.340;2023-04-24T13:35:26;85832.60;;;4.10
74539;BMP180;66042;51.090;-115.340;2023-04-24T13:37:54;85839.20;;;4.10
74539;BMP180;66042;51.090;-115.340;2023-04-24T13:40:21;85838.20;;;4.10
74539;BMP180;66042;51.090;-115.340;2023-04-24T13:42:48;85835.40;;;4.10
74539;BMP180;66042;51.090;-115.340;2023-04-24T13:45:15;85839.60;;;4.20
74539;BMP180;66042;51.090;-115.340;2023-04-24T13:47:42;85846.40;;;4.20
74539;BMP180;66042;51.090;-115.340;2023-04-24T13:50:10;85851.40;;;4.20
74539;BMP180;66042;51.090;-115.340;2023-04-24T13:52:36;85849.80;;;4.22
74539;BMP180;66042;51.090;-115.340;2023-04-24T13:55:04;85850.80;;;4.28
74539;BMP180;66042;51.090;-115.340;2023-04-24T13:57:30;85853.20;;;4.30